sensor_id;sensor_type;location;lat;lon;timestamp;P1;durP1;ratioP1;P2;durP2;ratioP2
59880;SDS011;45751;51.380;10.326;2022-08-01T00:00:06;7.75;;;2.80;;
59880;SDS011;45751;51.380;10.326;2022-08-01T00:02:36;8.95;;;2.28;;
59880;SDS011;45751;51.380;10.326;2022-08-01T00:05:04;6.15;;;2.10;;
59880;SDS011;45751;51.380;10.326;2022-08-01T00:07:33;7.90;;;2.42;;
59880;SDS011;45751;51.380;10.326;2022-08-01T00:10:01;6.80;;;2.60;;
59880;SDS011;45751;51.380;10.326;2022-08-01T00:12:32;5.75;;;1.80;;
59880;SDS011;45751;51.380;10.326;2022-08-01T00:14:59;6.72;;;2.53;;
59880;SDS011;45751;51.380;10.326;2022-08-01T00:17:26;6.40;;;1.80;;
59880;SDS011;45751;51.380;10.326;2022-08-01T00:19:53;9.20;;;2.08;;
59880;SDS011;45751;51.380;10.326;2022-08-01T00:22:20;6.75;;;2.22;;
59880;SDS011;45751;51.380;10.326;2022-08-01T00:24:47;6.93;;;2.25;;
59880;SDS011;45751;51.380;10.326;2022-08-01T00:27:14;6.47;;;2.15;;
59880;SDS011;45751;51.380;10.326;2022-08-01T00:29:41;8.73;;;2.40;;
59880;SDS011;45751;51.380;10.326;2022-08-01T00:32:30;6.97;;;2.70;;
59880;SDS011;45751;51.380;10.326;2022-08-01T00:34:57;7.27;;;2.37;;
59880;SDS011;45751;51.380;10.326;2022-08-01T00:37:24;6.80;;;2.30;;
59880;SDS011;45751;51.380;10.326;2022-08-01T00:39:52;8.00;;;2.63;;
59880;SDS011;45751;51.380;10.326;2022-08-01T00:42:18;6.78;;;2.58;;
59880;SDS011;45751;51.380;10.326;2022-08-01T00:44:45;6.85;;;2.53;;
59880;SDS011;45751;51.380;10.326;2022-08-01T00:47:12;7.80;;;2.50;;
59880;SDS011;45751;51.380;10.326;2022-08-01T00:49:39;7.38;;;2.45;;
59880;SDS011;45751;51.380;10.326;2022-08-01T00:52:06;7.43;;;2.80;;
59880;SDS011;45751;51.380;10.326;2022-08-01T00:54:35;7.95;;;2.97;;
59880;SDS011;45751;51.380;10.326;2022-08-01T00:57:02;7.38;;;2.70;;
59880;SDS011;45751;51.380;10.326;2022-08-01T00:59:29;8.10;;;3.33;;
59880;SDS011;45751;51.380;10.326;2022-08-01T01:01:57;8.05;;;2.45;;
59880;SDS011;45751;51.380;10.326;2022-08-01T01:04:24;8.40;;;2.55;;
59880;SDS011;45751;51.380;10.326;2022-08-01T01:06:55;9.23;;;3.17;;
59880;SDS011;45751;51.380;10.326;2022-08-01T01:12:01;9.48;;;3.05;;
59880;SDS011;45751;51.380;10.326;2022-08-01T01:15:06;8.10;;;2.67;;
59880;SDS011;45751;51.380;10.326;2022-08-01T01:17:39;7.38;;;2.88;;
59880;SDS011;45751;51.380;10.326;2022-08-01T01:20:17;9.00;;;3.03;;
59880;SDS011;45751;51.380;10.326;2022-08-01T01:30:53;9.27;;;2.83;;
59880;SDS011;45751;51.380;10.326;2022-08-01T01:33:22;6.72;;;2.70;;
59880;SDS011;45751;51.380;10.326;2022-08-01T01:35:52;6.78;;;2.60;;
59880;SDS011;45751;51.380;10.326;2022-08-01T01:38:26;10.52;;;2.58;;
59880;SDS011;45751;51.380;10.326;2022-08-01T01:40:56;8.90;;;2.97;;
59880;SDS011;45751;51.380;10.326;2022-08-01T01:43:24;7.22;;;2.80;;
59880;SDS011;45751;51.380;10.326;2022-08-01T01:45:58;10.18;;;2.80;;
59880;SDS011;45751;51.380;10.326;2022-08-01T01:48:27;11.55;;;2.67;;
59880;SDS011;45751;51.380;10.326;2022-08-01T01:50:55;9.98;;;2.80;;
59880;SDS011;45751;51.380;10.326;2022-08-01T01:53:23;7.38;;;2.50;;
59880;SDS011;45751;51.380;10.326;2022-08-01T01:55:53;8.15;;;2.42;;
59880;SDS011;45751;51.380;10.326;2022-08-01T01:58:22;7.55;;;2.38;;
59880;SDS011;45751;51.380;10.326;2022-08-01T02:00:51;6.45;;;2.08;;
59880;SDS011;45751;51.380;10.326;2022-08-01T02:03:21;7.00;;;1.83;;
59880;SDS011;45751;51.380;10.326;2022-08-01T02:05:51;5.75;;;1.85;;
59880;SDS011;45751;51.380;10.326;2022-08-01T02:08:18;5.53;;;1.48;;
59880;SDS011;45751;51.380;10.326;2022-08-01T02:10:46;5.78;;;1.38;;
59880;SDS011;45751;51.380;10.326;2022-08-01T02:13:32;6.68;;;1.50;;
59880;SDS011;45751;51.380;10.326;2022-08-01T02:16:02;6.63;;;2.10;;
59880;SDS011;45751;51.380;10.326;2022-08-01T02:18:30;7.32;;;2.35;;
59880;SDS011;45751;51.380;10.326;2022-08-01T02:20:58;7.10;;;2.47;;
59880;SDS011;45751;51.380;10.326;2022-08-01T02:23:33;7.32;;;2.72;;
59880;SDS011;45751;51.380;10.326;2022-08-01T02:26:02;8.13;;;3.10;;
59880;SDS011;45751;51.380;10.326;2022-08-01T02:28:39;7.30;;;2.83;;
59880;SDS011;45751;51.380;10.326;2022-08-01T02:31:12;8.95;;;3.47;;
59880;SDS011;45751;51.380;10.326;2022-08-01T02:33:41;9.65;;;3.20;;
59880;SDS011;45751;51.380;10.326;2022-08-01T02:36:12;9.55;;;3.58;;
59880;SDS011;45751;51.380;10.326;2022-08-01T02:38:56;10.73;;;3.40;;
59880;SDS011;45751;51.380;10.326;2022-08-01T02:41:25;9.75;;;3.97;;
59880;SDS011;45751;51.380;10.326;2022-08-01T02:43:56;10.10;;;4.25;;
59880;SDS011;45751;51.380;10.326;2022-08-01T02:46:34;10.30;;;4.22;;
59880;SDS011;45751;51.380;10.326;2022-08-01T02:49:05;13.80;;;5.25;;
59880;SDS011;45751;51.380;10.326;2022-08-01T02:51:35;11.60;;;5.30;;
59880;SDS011;45751;51.380;10.326;2022-08-01T02:54:03;16.48;;;5.18;;
59880;SDS011;45751;51.380;10.326;2022-08-01T02:56:33;15.50;;;5.32;;
59880;SDS011;45751;51.380;10.326;2022-08-01T02:59:05;11.77;;;4.97;;
59880;SDS011;45751;51.380;10.326;2022-08-01T03:01:38;12.52;;;5.90;;
59880;SDS011;45751;51.380;10.326;2022-08-01T03:04:08;14.20;;;6.30;;
59880;SDS011;45751;51.380;10.326;2022-08-01T03:06:36;13.30;;;5.53;;
59880;SDS011;45751;51.380;10.326;2022-08-01T03:09:05;15.75;;;5.15;;
59880;SDS011;45751;51.380;10.326;2022-08-01T03:11:33;17.80;;;5.35;;
59880;SDS011;45751;51.380;10.326;2022-08-01T03:14:02;13.85;;;5.85;;
59880;SDS011;45751;51.380;10.326;2022-08-01T03:16:33;14.70;;;5.35;;
59880;SDS011;45751;51.380;10.326;2022-08-01T03:19:04;13.63;;;5.97;;
59880;SDS011;45751;51.380;10.326;2022-08-01T03:21:34;14.85;;;6.38;;
59880;SDS011;45751;51.380;10.326;2022-08-01T03:24:03;13.93;;;6.20;;
59880;SDS011;45751;51.380;10.326;2022-08-01T03:26:33;16.23;;;6.80;;
59880;SDS011;45751;51.380;10.326;2022-08-01T03:29:04;14.02;;;6.05;;
59880;SDS011;45751;51.380;10.326;2022-08-01T03:31:36;14.90;;;6.93;;
59880;SDS011;45751;51.380;10.326;2022-08-01T03:34:04;16.83;;;7.15;;
59880;SDS011;45751;51.380;10.326;2022-08-01T03:36:32;18.67;;;6.32;;
59880;SDS011;45751;51.380;10.326;2022-08-01T03:39:05;14.70;;;6.30;;
59880;SDS011;45751;51.380;10.326;2022-08-01T03:41:34;15.52;;;7.43;;
59880;SDS011;45751;51.380;10.326;2022-08-01T03:44:08;14.95;;;6.50;;
59880;SDS011;45751;51.380;10.326;2022-08-01T03:46:48;16.55;;;7.35;;
59880;SDS011;45751;51.380;10.326;2022-08-01T03:49:22;15.13;;;7.25;;
59880;SDS011;45751;51.380;10.326;2022-08-01T03:51:52;17.52;;;7.30;;
59880;SDS011;45751;51.380;10.326;2022-08-01T03:54:21;17.48;;;7.47;;
59880;SDS011;45751;51.380;10.326;2022-08-01T03:56:51;22.23;;;7.57;;
59880;SDS011;45751;51.380;10.326;2022-08-01T03:59:18;17.05;;;6.82;;
59880;SDS011;45751;51.380;10.326;2022-08-01T04:01:46;19.50;;;7.75;;
59880;SDS011;45751;51.380;10.326;2022-08-01T04:04:14;17.80;;;7.60;;
59880;SDS011;45751;51.380;10.326;2022-08-01T04:06:41;14.98;;;6.50;;
59880;SDS011;45751;51.380;10.326;2022-08-01T04:09:11;13.95;;;5.72;;
59880;SDS011;45751;51.380;10.326;2022-08-01T04:11:41;11.80;;;4.97;;
59880;SDS011;45751;51.380;10.326;2022-08-01T04:14:08;10.88;;;3.13;;
59880;SDS011;45751;51.380;10.326;2022-08-01T04:16:34;9.82;;;3.17;;
59880;SDS011;45751;51.380;10.326;2022-08-01T04:19:01;7.50;;;2.05;;
59880;SDS011;45751;51.380;10.326;2022-08-01T04:21:29;8.68;;;2.40;;
59880;SDS011;45751;51.380;10.326;2022-08-01T04:23:59;8.98;;;2.22;;
59880;SDS011;45751;51.380;10.326;2022-08-01T04:26:32;6.88;;;1.98;;
59880;SDS011;45751;51.380;10.326;2022-08-01T04:29:01;8.95;;;2.30;;
59880;SDS011;45751;51.380;10.326;2022-08-01T04:31:31;7.18;;;2.13;;
59880;SDS011;45751;51.380;10.326;2022-08-01T04:33:59;7.22;;;2.00;;
59880;SDS011;45751;51.380;10.326;2022-08-01T04:36:26;7.32;;;2.28;;
59880;SDS011;45751;51.380;10.326;2022-08-01T04:38:58;7.03;;;2.33;;
59880;SDS011;45751;51.380;10.326;2022-08-01T04:41:27;6.28;;;1.95;;
59880;SDS011;45751;51.380;10.326;2022-08-01T04:43:56;11.23;;;2.67;;
59880;SDS011;45751;51.380;10.326;2022-08-01T04:46:25;9.75;;;2.58;;
59880;SDS011;45751;51.380;10.326;2022-08-01T04:48:54;9.02;;;2.47;;
59880;SDS011;45751;51.380;10.326;2022-08-01T04:51:22;7.50;;;2.90;;
59880;SDS011;45751;51.380;10.326;2022-08-01T04:53:49;9.45;;;2.58;;
59880;SDS011;45751;51.380;10.326;2022-08-01T04:56:20;7.38;;;2.83;;
59880;SDS011;45751;51.380;10.326;2022-08-01T04:58:47;9.25;;;2.85;;
59880;SDS011;45751;51.380;10.326;2022-08-01T05:01:14;7.72;;;2.38;;
59880;SDS011;45751;51.380;10.326;2022-08-01T05:03:41;7.50;;;2.50;;
59880;SDS011;45751;51.380;10.326;2022-08-01T05:06:09;10.75;;;2.63;;
59880;SDS011;45751;51.380;10.326;2022-08-01T05:08:35;8.43;;;3.08;;
59880;SDS011;45751;51.380;10.326;2022-08-01T05:11:02;8.68;;;3.05;;
59880;SDS011;45751;51.380;10.326;2022-08-01T05:13:30;9.23;;;3.05;;
59880;SDS011;45751;51.380;10.326;2022-08-01T05:15:56;9.52;;;3.40;;
59880;SDS011;45751;51.380;10.326;2022-08-01T05:18:24;9.73;;;3.58;;
59880;SDS011;45751;51.380;10.326;2022-08-01T05:20:54;11.27;;;3.28;;
59880;SDS011;45751;51.380;10.326;2022-08-01T05:23:21;12.10;;;3.63;;
59880;SDS011;45751;51.380;10.326;2022-08-01T05:26:08;9.52;;;4.22;;
59880;SDS011;45751;51.380;10.326;2022-08-01T05:28:35;12.98;;;4.93;;
59880;SDS011;45751;51.380;10.326;2022-08-01T05:31:03;11.38;;;3.92;;
59880;SDS011;45751;51.380;10.326;2022-08-01T05:33:29;10.70;;;3.83;;
59880;SDS011;45751;51.380;10.326;2022-08-01T05:35:56;13.77;;;4.57;;
59880;SDS011;45751;51.380;10.326;2022-08-01T05:38:23;12.02;;;4.57;;
59880;SDS011;45751;51.380;10.326;2022-08-01T05:40:50;12.63;;;4.20;;
59880;SDS011;45751;51.380;10.326;2022-08-01T05:43:17;10.95;;;4.30;;
59880;SDS011;45751;51.380;10.326;2022-08-01T05:45:43;10.43;;;4.50;;
59880;SDS011;45751;51.380;10.326;2022-08-01T05:48:12;13.25;;;4.70;;
59880;SDS011;45751;51.380;10.326;2022-08-01T05:50:39;12.70;;;4.78;;
59880;SDS011;45751;51.380;10.326;2022-08-01T05:53:06;11.82;;;3.95;;
59880;SDS011;45751;51.380;10.326;2022-08-01T05:55:34;12.30;;;4.35;;
59880;SDS011;45751;51.380;10.326;2022-08-01T05:58:01;12.25;;;4.40;;
59880;SDS011;45751;51.380;10.326;2022-08-01T06:00:28;14.02;;;4.28;;
59880;SDS011;45751;51.380;10.326;2022-08-01T06:02:55;11.70;;;4.20;;
59880;SDS011;45751;51.380;10.326;2022-08-01T06:05:22;11.05;;;4.60;;
59880;SDS011;45751;51.380;10.326;2022-08-01T06:07:49;15.35;;;4.47;;
59880;SDS011;45751;51.380;10.326;2022-08-01T06:10:15;9.73;;;3.70;;
59880;SDS011;45751;51.380;10.326;2022-08-01T06:12:42;10.57;;;3.92;;
59880;SDS011;45751;51.380;10.326;2022-08-01T06:15:09;10.30;;;3.60;;
59880;SDS011;45751;51.380;10.326;2022-08-01T06:17:36;9.80;;;3.30;;
59880;SDS011;45751;51.380;10.326;2022-08-01T06:20:03;10.57;;;3.55;;
59880;SDS011;45751;51.380;10.326;2022-08-01T06:22:32;10.48;;;3.60;;
59880;SDS011;45751;51.380;10.326;2022-08-01T06:24:59;7.70;;;3.08;;
59880;SDS011;45751;51.380;10.326;2022-08-01T06:27:26;8.70;;;3.17;;
59880;SDS011;45751;51.380;10.326;2022-08-01T06:29:52;10.73;;;3.97;;
59880;SDS011;45751;51.380;10.326;2022-08-01T06:32:20;8.13;;;3.20;;
59880;SDS011;45751;51.380;10.326;2022-08-01T06:34:53;8.73;;;3.58;;
59880;SDS011;45751;51.380;10.326;2022-08-01T06:37:21;8.45;;;3.22;;
59880;SDS011;45751;51.380;10.326;2022-08-01T06:39:48;8.68;;;3.25;;
59880;SDS011;45751;51.380;10.326;2022-08-01T06:42:16;9.32;;;3.38;;
59880;SDS011;45751;51.380;10.326;2022-08-01T06:44:43;10.00;;;3.42;;
59880;SDS011;45751;51.380;10.326;2022-08-01T06:47:10;8.35;;;2.50;;
59880;SDS011;45751;51.380;10.326;2022-08-01T06:49:37;8.73;;;3.55;;
59880;SDS011;45751;51.380;10.326;2022-08-01T06:52:04;13.52;;;2.78;;
59880;SDS011;45751;51.380;10.326;2022-08-01T06:54:31;12.15;;;2.85;;
59880;SDS011;45751;51.380;10.326;2022-08-01T06:56:58;7.80;;;2.22;;
59880;SDS011;45751;51.380;10.326;2022-08-01T06:59:25;6.78;;;2.35;;
59880;SDS011;45751;51.380;10.326;2022-08-01T07:01:52;7.45;;;2.20;;
59880;SDS011;45751;51.380;10.326;2022-08-01T07:04:18;8.23;;;2.00;;
59880;SDS011;45751;51.380;10.326;2022-08-01T07:06:45;7.35;;;2.22;;
59880;SDS011;45751;51.380;10.326;2022-08-01T07:09:12;7.32;;;2.15;;
59880;SDS011;45751;51.380;10.326;2022-08-01T07:11:40;6.70;;;2.03;;
59880;SDS011;45751;51.380;10.326;2022-08-01T07:14:07;6.57;;;2.08;;
59880;SDS011;45751;51.380;10.326;2022-08-01T07:16:34;5.50;;;1.73;;
59880;SDS011;45751;51.380;10.326;2022-08-01T07:19:01;6.50;;;1.88;;
59880;SDS011;45751;51.380;10.326;2022-08-01T07:21:29;6.22;;;1.80;;
59880;SDS011;45751;51.380;10.326;2022-08-01T07:24:07;4.70;;;1.30;;
59880;SDS011;45751;51.380;10.326;2022-08-01T07:26:43;5.55;;;1.50;;
59880;SDS011;45751;51.380;10.326;2022-08-01T07:29:20;6.80;;;1.80;;
59880;SDS011;45751;51.380;10.326;2022-08-01T07:31:48;9.07;;;1.73;;
59880;SDS011;45751;51.380;10.326;2022-08-01T07:34:15;6.35;;;1.70;;
59880;SDS011;45751;51.380;10.326;2022-08-01T07:36:42;5.57;;;1.58;;
59880;SDS011;45751;51.380;10.326;2022-08-01T07:39:08;6.13;;;1.60;;
59880;SDS011;45751;51.380;10.326;2022-08-01T07:41:35;5.22;;;1.35;;
59880;SDS011;45751;51.380;10.326;2022-08-01T07:44:22;6.13;;;1.42;;
59880;SDS011;45751;51.380;10.326;2022-08-01T07:46:53;4.80;;;1.25;;
59880;SDS011;45751;51.380;10.326;2022-08-01T07:49:20;6.05;;;1.58;;
59880;SDS011;45751;51.380;10.326;2022-08-01T07:51:48;6.75;;;1.38;;
59880;SDS011;45751;51.380;10.326;2022-08-01T07:54:35;5.00;;;1.27;;
59880;SDS011;45751;51.380;10.326;2022-08-01T07:57:02;6.18;;;1.85;;
59880;SDS011;45751;51.380;10.326;2022-08-01T07:59:29;5.35;;;1.65;;
59880;SDS011;45751;51.380;10.326;2022-08-01T08:01:56;6.22;;;1.65;;
59880;SDS011;45751;51.380;10.326;2022-08-01T08:04:23;5.97;;;1.90;;
59880;SDS011;45751;51.380;10.326;2022-08-01T08:06:50;8.70;;;2.20;;
59880;SDS011;45751;51.380;10.326;2022-08-01T08:09:18;6.53;;;1.58;;
59880;SDS011;45751;51.380;10.326;2022-08-01T08:11:45;6.35;;;1.65;;
59880;SDS011;45751;51.380;10.326;2022-08-01T08:14:14;6.78;;;1.65;;
59880;SDS011;45751;51.380;10.326;2022-08-01T08:16:43;5.38;;;1.42;;
59880;SDS011;45751;51.380;10.326;2022-08-01T08:19:10;5.72;;;1.30;;
59880;SDS011;45751;51.380;10.326;2022-08-01T08:21:38;6.63;;;1.52;;
59880;SDS011;45751;51.380;10.326;2022-08-01T08:24:06;5.57;;;1.48;;
59880;SDS011;45751;51.380;10.326;2022-08-01T08:26:59;5.45;;;1.60;;
59880;SDS011;45751;51.380;10.326;2022-08-01T08:29:27;5.75;;;1.55;;
59880;SDS011;45751;51.380;10.326;2022-08-01T08:31:58;5.75;;;1.48;;
59880;SDS011;45751;51.380;10.326;2022-08-01T08:34:25;5.63;;;1.55;;
59880;SDS011;45751;51.380;10.326;2022-08-01T08:36:53;6.40;;;1.75;;
59880;SDS011;45751;51.380;10.326;2022-08-01T08:39:21;6.45;;;1.40;;
59880;SDS011;45751;51.380;10.326;2022-08-01T08:41:48;5.40;;;1.30;;
59880;SDS011;45751;51.380;10.326;2022-08-01T08:44:16;5.28;;;1.40;;
59880;SDS011;45751;51.380;10.326;2022-08-01T08:46:44;5.68;;;1.55;;
59880;SDS011;45751;51.380;10.326;2022-08-01T08:49:15;8.75;;;1.80;;
59880;SDS011;45751;51.380;10.326;2022-08-01T08:51:43;5.80;;;1.40;;
59880;SDS011;45751;51.380;10.326;2022-08-01T08:56:42;6.30;;;1.52;;
59880;SDS011;45751;51.380;10.326;2022-08-01T08:59:11;5.32;;;1.50;;
59880;SDS011;45751;51.380;10.326;2022-08-01T09:01:39;5.97;;;1.90;;
59880;SDS011;45751;51.380;10.326;2022-08-01T09:04:07;6.68;;;1.70;;
59880;SDS011;45751;51.380;10.326;2022-08-01T09:06:35;6.03;;;1.30;;
59880;SDS011;45751;51.380;10.326;2022-08-01T09:09:02;5.70;;;1.40;;
59880;SDS011;45751;51.380;10.326;2022-08-01T09:11:30;5.97;;;1.70;;
59880;SDS011;45751;51.380;10.326;2022-08-01T09:14:00;5.97;;;1.50;;
59880;SDS011;45751;51.380;10.326;2022-08-01T09:16:35;5.35;;;1.63;;
59880;SDS011;45751;51.380;10.326;2022-08-01T09:19:10;5.35;;;1.60;;
59880;SDS011;45751;51.380;10.326;2022-08-01T09:22:04;6.25;;;1.52;;
59880;SDS011;45751;51.380;10.326;2022-08-01T09:24:33;5.07;;;1.25;;
59880;SDS011;45751;51.380;10.326;2022-08-01T09:27:01;6.07;;;1.55;;
59880;SDS011;45751;51.380;10.326;2022-08-01T09:29:53;5.72;;;1.52;;
59880;SDS011;45751;51.380;10.326;2022-08-01T09:32:32;7.97;;;1.33;;
59880;SDS011;45751;51.380;10.326;2022-08-01T09:38:13;5.63;;;1.52;;
59880;SDS011;45751;51.380;10.326;2022-08-01T09:43:15;5.57;;;1.42;;
59880;SDS011;45751;51.380;10.326;2022-08-01T09:45:42;7.22;;;1.70;;
59880;SDS011;45751;51.380;10.326;2022-08-01T09:48:16;6.45;;;1.50;;
59880;SDS011;45751;51.380;10.326;2022-08-01T09:50:47;4.57;;;1.10;;
59880;SDS011;45751;51.380;10.326;2022-08-01T09:53:15;5.10;;;1.23;;
59880;SDS011;45751;51.380;10.326;2022-08-01T09:56:00;5.70;;;1.42;;
59880;SDS011;45751;51.380;10.326;2022-08-01T09:58:57;6.32;;;1.52;;
59880;SDS011;45751;51.380;10.326;2022-08-01T10:01:28;4.32;;;1.08;;
59880;SDS011;45751;51.380;10.326;2022-08-01T10:04:09;4.82;;;1.30;;
59880;SDS011;45751;51.380;10.326;2022-08-01T10:06:38;5.43;;;1.50;;
59880;SDS011;45751;51.380;10.326;2022-08-01T10:09:09;6.10;;;1.45;;
59880;SDS011;45751;51.380;10.326;2022-08-01T10:11:41;4.90;;;1.17;;
59880;SDS011;45751;51.380;10.326;2022-08-01T10:14:10;3.90;;;0.85;;
59880;SDS011;45751;51.380;10.326;2022-08-01T10:16:44;7.15;;;1.10;;
59880;SDS011;45751;51.380;10.326;2022-08-01T10:19:21;4.65;;;0.98;;
59880;SDS011;45751;51.380;10.326;2022-08-01T10:21:50;4.35;;;0.93;;
59880;SDS011;45751;51.380;10.326;2022-08-01T10:24:25;3.22;;;0.70;;
59880;SDS011;45751;51.380;10.326;2022-08-01T10:26:58;3.72;;;0.88;;
59880;SDS011;45751;51.380;10.326;2022-08-01T10:29:40;3.92;;;0.80;;
59880;SDS011;45751;51.380;10.326;2022-08-01T10:32:25;4.57;;;0.90;;
59880;SDS011;45751;51.380;10.326;2022-08-01T10:34:54;4.40;;;1.10;;
59880;SDS011;45751;51.380;10.326;2022-08-01T10:37:21;5.85;;;1.10;;
59880;SDS011;45751;51.380;10.326;2022-08-01T10:39:52;3.92;;;1.00;;
59880;SDS011;45751;51.380;10.326;2022-08-01T10:42:44;3.28;;;0.90;;
59880;SDS011;45751;51.380;10.326;2022-08-01T10:45:12;3.97;;;0.95;;
59880;SDS011;45751;51.380;10.326;2022-08-01T10:47:45;4.65;;;1.00;;
59880;SDS011;45751;51.380;10.326;2022-08-01T10:55:52;5.60;;;1.10;;
59880;SDS011;45751;51.380;10.326;2022-08-01T10:58:25;3.17;;;0.77;;
59880;SDS011;45751;51.380;10.326;2022-08-01T11:01:22;4.30;;;1.00;;
59880;SDS011;45751;51.380;10.326;2022-08-01T11:09:04;4.43;;;1.10;;
59880;SDS011;45751;51.380;10.326;2022-08-01T11:12:04;5.25;;;1.08;;
59880;SDS011;45751;51.380;10.326;2022-08-01T11:17:37;4.03;;;0.80;;
59880;SDS011;45751;51.380;10.326;2022-08-01T11:20:12;3.67;;;0.90;;
59880;SDS011;45751;51.380;10.326;2022-08-01T11:28:24;2.97;;;0.60;;
59880;SDS011;45751;51.380;10.326;2022-08-01T11:41:40;3.03;;;0.63;;
59880;SDS011;45751;51.380;10.326;2022-08-01T11:52:40;2.67;;;0.70;;
59880;SDS011;45751;51.380;10.326;2022-08-01T11:57:29;4.90;;;1.20;;
59880;SDS011;45751;51.380;10.326;2022-08-01T12:00:03;6.60;;;1.48;;
59880;SDS011;45751;51.380;10.326;2022-08-01T12:02:40;4.65;;;1.23;;
59880;SDS011;45751;51.380;10.326;2022-08-01T12:05:11;4.78;;;1.30;;
59880;SDS011;45751;51.380;10.326;2022-08-01T12:07:43;4.30;;;1.20;;
59880;SDS011;45751;51.380;10.326;2022-08-01T12:10:13;4.28;;;1.25;;
59880;SDS011;45751;51.380;10.326;2022-08-01T12:12:46;6.97;;;1.50;;
59880;SDS011;45751;51.380;10.326;2022-08-01T12:15:15;4.78;;;1.25;;
59880;SDS011;45751;51.380;10.326;2022-08-01T12:17:47;5.60;;;1.10;;
59880;SDS011;45751;51.380;10.326;2022-08-01T12:20:31;4.90;;;1.60;;
59880;SDS011;45751;51.380;10.326;2022-08-01T12:23:03;3.45;;;1.00;;
59880;SDS011;45751;51.380;10.326;2022-08-01T12:25:35;3.92;;;1.15;;
59880;SDS011;45751;51.380;10.326;2022-08-01T12:28:03;4.40;;;1.13;;
59880;SDS011;45751;51.380;10.326;2022-08-01T12:30:31;4.00;;;0.98;;
59880;SDS011;45751;51.380;10.326;2022-08-01T12:33:07;4.45;;;1.02;;
59880;SDS011;45751;51.380;10.326;2022-08-01T12:35:35;3.47;;;1.00;;
59880;SDS011;45751;51.380;10.326;2022-08-01T12:38:05;4.68;;;1.15;;
59880;SDS011;45751;51.380;10.326;2022-08-01T12:40:43;4.95;;;1.23;;
59880;SDS011;45751;51.380;10.326;2022-08-01T12:43:17;4.50;;;1.38;;
59880;SDS011;45751;51.380;10.326;2022-08-01T12:45:55;4.22;;;1.20;;
59880;SDS011;45751;51.380;10.326;2022-08-01T12:48:24;4.90;;;1.30;;
59880;SDS011;45751;51.380;10.326;2022-08-01T12:50:52;6.00;;;1.40;;
59880;SDS011;45751;51.380;10.326;2022-08-01T12:53:20;5.05;;;1.40;;
59880;SDS011;45751;51.380;10.326;2022-08-01T12:58:31;4.38;;;1.17;;
59880;SDS011;45751;51.380;10.326;2022-08-01T13:01:07;4.88;;;1.15;;
59880;SDS011;45751;51.380;10.326;2022-08-01T13:03:35;5.55;;;1.25;;
59880;SDS011;45751;51.380;10.326;2022-08-01T13:06:09;4.40;;;1.20;;
59880;SDS011;45751;51.380;10.326;2022-08-01T13:08:38;4.35;;;1.10;;
59880;SDS011;45751;51.380;10.326;2022-08-01T13:11:06;4.03;;;1.10;;
59880;SDS011;45751;51.380;10.326;2022-08-01T13:13:45;3.95;;;1.10;;
59880;SDS011;45751;51.380;10.326;2022-08-01T13:16:14;3.70;;;0.90;;
59880;SDS011;45751;51.380;10.326;2022-08-01T13:19:04;3.10;;;0.80;;
59880;SDS011;45751;51.380;10.326;2022-08-01T13:21:32;3.63;;;0.90;;
59880;SDS011;45751;51.380;10.326;2022-08-01T13:24:24;3.08;;;0.80;;
59880;SDS011;45751;51.380;10.326;2022-08-01T13:26:54;3.60;;;0.90;;
59880;SDS011;45751;51.380;10.326;2022-08-01T13:29:38;3.67;;;0.82;;
59880;SDS011;45751;51.380;10.326;2022-08-01T13:32:15;3.35;;;0.95;;
59880;SDS011;45751;51.380;10.326;2022-08-01T13:35:05;3.90;;;0.90;;
59880;SDS011;45751;51.380;10.326;2022-08-01T13:37:35;3.72;;;1.00;;
59880;SDS011;45751;51.380;10.326;2022-08-01T13:40:05;4.43;;;1.30;;
59880;SDS011;45751;51.380;10.326;2022-08-01T13:42:33;4.07;;;1.08;;
59880;SDS011;45751;51.380;10.326;2022-08-01T13:45:00;4.45;;;1.25;;
59880;SDS011;45751;51.380;10.326;2022-08-01T13:47:29;2.97;;;0.85;;
59880;SDS011;45751;51.380;10.326;2022-08-01T13:50:01;4.63;;;1.20;;
59880;SDS011;45751;51.380;10.326;2022-08-01T13:52:29;4.45;;;1.20;;
59880;SDS011;45751;51.380;10.326;2022-08-01T13:54:57;4.63;;;1.10;;
59880;SDS011;45751;51.380;10.326;2022-08-01T13:57:24;4.88;;;1.30;;
59880;SDS011;45751;51.380;10.326;2022-08-01T14:00:03;4.45;;;1.10;;
59880;SDS011;45751;51.380;10.326;2022-08-01T14:02:37;5.03;;;1.17;;
59880;SDS011;45751;51.380;10.326;2022-08-01T14:05:04;4.53;;;1.20;;
59880;SDS011;45751;51.380;10.326;2022-08-01T14:07:31;4.22;;;1.00;;
59880;SDS011;45751;51.380;10.326;2022-08-01T14:09:58;4.28;;;1.17;;
59880;SDS011;45751;51.380;10.326;2022-08-01T14:12:45;4.18;;;1.00;;
59880;SDS011;45751;51.380;10.326;2022-08-01T14:15:13;4.28;;;1.00;;
59880;SDS011;45751;51.380;10.326;2022-08-01T14:18:00;3.92;;;1.05;;
59880;SDS011;45751;51.380;10.326;2022-08-01T14:20:27;2.90;;;0.77;;
59880;SDS011;45751;51.380;10.326;2022-08-01T14:22:53;3.80;;;1.17;;
59880;SDS011;45751;51.380;10.326;2022-08-01T14:25:20;4.03;;;1.08;;
59880;SDS011;45751;51.380;10.326;2022-08-01T14:28:07;5.68;;;1.20;;
59880;SDS011;45751;51.380;10.326;2022-08-01T14:30:34;4.90;;;1.10;;
59880;SDS011;45751;51.380;10.326;2022-08-01T14:33:01;4.45;;;1.20;;
59880;SDS011;45751;51.380;10.326;2022-08-01T14:35:28;4.50;;;1.10;;
59880;SDS011;45751;51.380;10.326;2022-08-01T14:38:15;5.00;;;1.20;;
59880;SDS011;45751;51.380;10.326;2022-08-01T14:40:57;4.38;;;1.17;;
59880;SDS011;45751;51.380;10.326;2022-08-01T14:43:24;5.82;;;1.42;;
59880;SDS011;45751;51.380;10.326;2022-08-01T14:45:58;4.68;;;1.25;;
59880;SDS011;45751;51.380;10.326;2022-08-01T14:48:26;4.85;;;1.40;;
59880;SDS011;45751;51.380;10.326;2022-08-01T14:50:53;6.30;;;2.15;;
59880;SDS011;45751;51.380;10.326;2022-08-01T14:53:19;6.68;;;2.03;;
59880;SDS011;45751;51.380;10.326;2022-08-01T14:55:46;4.55;;;1.33;;
59880;SDS011;45751;51.380;10.326;2022-08-01T14:58:13;4.85;;;1.23;;
59880;SDS011;45751;51.380;10.326;2022-08-01T15:00:40;4.57;;;1.25;;
59880;SDS011;45751;51.380;10.326;2022-08-01T15:03:07;3.88;;;1.13;;
59880;SDS011;45751;51.380;10.326;2022-08-01T15:05:34;4.22;;;1.15;;
59880;SDS011;45751;51.380;10.326;2022-08-01T15:08:03;4.25;;;1.10;;
59880;SDS011;45751;51.380;10.326;2022-08-01T15:10:31;3.97;;;1.17;;
59880;SDS011;45751;51.380;10.326;2022-08-01T15:12:58;4.82;;;1.25;;
59880;SDS011;45751;51.380;10.326;2022-08-01T15:15:27;3.45;;;0.93;;
59880;SDS011;45751;51.380;10.326;2022-08-01T15:17:54;3.40;;;0.82;;
59880;SDS011;45751;51.380;10.326;2022-08-01T15:20:21;4.45;;;1.10;;
59880;SDS011;45751;51.380;10.326;2022-08-01T15:22:48;4.50;;;1.25;;
59880;SDS011;45751;51.380;10.326;2022-08-01T15:25:15;5.53;;;1.55;;
59880;SDS011;45751;51.380;10.326;2022-08-01T15:27:42;5.03;;;1.40;;
59880;SDS011;45751;51.380;10.326;2022-08-01T15:30:09;4.07;;;1.35;;
59880;SDS011;45751;51.380;10.326;2022-08-01T15:32:36;4.65;;;1.25;;
59880;SDS011;45751;51.380;10.326;2022-08-01T15:35:03;5.78;;;1.40;;
59880;SDS011;45751;51.380;10.326;2022-08-01T15:37:32;5.18;;;1.40;;
59880;SDS011;45751;51.380;10.326;2022-08-01T15:40:01;5.60;;;1.35;;
59880;SDS011;45751;51.380;10.326;2022-08-01T15:42:29;4.80;;;1.30;;
59880;SDS011;45751;51.380;10.326;2022-08-01T15:44:56;4.60;;;1.40;;
59880;SDS011;45751;51.380;10.326;2022-08-01T15:47:22;4.88;;;1.50;;
59880;SDS011;45751;51.380;10.326;2022-08-01T15:49:50;4.70;;;1.30;;
59880;SDS011;45751;51.380;10.326;2022-08-01T15:52:18;5.90;;;1.67;;